EFW8ZA LEZL-EGKK
Flight info
| Callsign | EFW8ZA |
|---|---|
| Flight time | 2h 4m |
| Altitude | 36000 |
| Route | HIJ2P HIJ M30 PARKA N858 SIE N865 DELOG DCT NOVAN DCT ERCOZ DCT BADUR DCT FEJAC DCT JSY/N0436F340 DCT REVTU UP88 VASUX VASUX1G |
| Aircraft | A321/M-SDE3FGIJ1KRWXY/SB1 |
Departure
| Time | 2026-05-07 09:53 |
|---|---|
| Airport | Seville Airport (LEZL) |
Arrival
| Time | 2026-05-07 11:58 |
|---|---|
| Airport | London Gatwick Airport (EGKK) |
| Time | Latitude | Longitude | Altitude | Speed | Heading |
|---|---|---|---|---|---|
| 2026-05-07 08:42 | 37.42214 | -5.89948 | 94 ft | 0 kts | 314° |
| 2026-05-07 09:43 | 37.42210 | -5.89942 | 95 ft | 4 kts | 316° |
| 2026-05-07 09:44 | 37.42189 | -5.89920 | 94 ft | 4 kts | 328° |
| 2026-05-07 09:44 | 37.42165 | -5.89906 | 94 ft | 4 kts | 352° |
| 2026-05-07 09:44 | 37.42143 | -5.89910 | 94 ft | 2 kts | 41° |
| 2026-05-07 09:44 | 37.42141 | -5.89912 | 94 ft | 0 kts | 44° |
| 2026-05-07 09:47 | 37.42150 | -5.89901 | 95 ft | 7 kts | 44° |
| 2026-05-07 09:47 | 37.42194 | -5.89846 | 94 ft | 10 kts | 45° |
| 2026-05-07 09:47 | 37.42241 | -5.89786 | 96 ft | 9 kts | 45° |
| 2026-05-07 09:47 | 37.42256 | -5.89716 | 96 ft | 9 kts | 114° |
| 2026-05-07 09:48 | 37.42212 | -5.89652 | 94 ft | 11 kts | 134° |
| 2026-05-07 09:48 | 37.42135 | -5.89553 | 97 ft | 17 kts | 134° |
| 2026-05-07 09:48 | 37.42053 | -5.89447 | 98 ft | 17 kts | 135° |
| 2026-05-07 09:48 | 37.41988 | -5.89355 | 101 ft | 11 kts | 115° |
| 2026-05-07 09:49 | 37.41983 | -5.89252 | 100 ft | 15 kts | 89° |
| 2026-05-07 09:49 | 37.41983 | -5.89086 | 101 ft | 21 kts | 90° |
| 2026-05-07 09:49 | 37.41984 | -5.88899 | 102 ft | 22 kts | 90° |
| 2026-05-07 09:49 | 37.41984 | -5.88711 | 102 ft | 22 kts | 90° |
| 2026-05-07 09:50 | 37.41985 | -5.88521 | 104 ft | 22 kts | 89° |
| 2026-05-07 09:50 | 37.41986 | -5.88329 | 105 ft | 22 kts | 90° |
| 2026-05-07 09:50 | 37.41987 | -5.88134 | 106 ft | 22 kts | 90° |
| 2026-05-07 09:50 | 37.41987 | -5.87936 | 107 ft | 23 kts | 90° |
| 2026-05-07 09:51 | 37.41988 | -5.87741 | 108 ft | 23 kts | 89° |
| 2026-05-07 09:51 | 37.41988 | -5.87542 | 110 ft | 23 kts | 90° |
| 2026-05-07 09:51 | 37.41981 | -5.87359 | 112 ft | 16 kts | 108° |
| 2026-05-07 09:51 | 37.41899 | -5.87316 | 117 ft | 13 kts | 204° |
| 2026-05-07 09:52 | 37.41839 | -5.87407 | 116 ft | 14 kts | 237° |
| 2026-05-07 09:52 | 37.41802 | -5.87493 | 117 ft | 12 kts | 262° |
| 2026-05-07 09:52 | 37.41799 | -5.87666 | 113 ft | 44 kts | 270° |
| 2026-05-07 09:52 | 37.41796 | -5.88378 | 107 ft | 116 kts | 269° |
| 2026-05-07 09:53 | 37.41793 | -5.89652 | 100 ft | 172 kts | 269° |
| 2026-05-07 09:53 | 37.41789 | -5.91177 | 708 ft | 171 kts | 268° |
| 2026-05-07 09:53 | 37.41963 | -5.92670 | 1362 ft | 181 kts | 293° |
| 2026-05-07 09:53 | 37.42817 | -5.93970 | 1629 ft | 205 kts | 313° |
| 2026-05-07 09:54 | 37.43917 | -5.95236 | 1869 ft | 224 kts | 315° |
| 2026-05-07 09:54 | 37.45156 | -5.96578 | 2052 ft | 247 kts | 317° |
| 2026-05-07 09:54 | 37.46511 | -5.98065 | 2486 ft | 263 kts | 316° |
| 2026-05-07 09:54 | 37.47897 | -5.99611 | 3196 ft | 269 kts | 315° |
| 2026-05-07 09:55 | 37.49397 | -6.01037 | 3944 ft | 275 kts | 332° |
| 2026-05-07 09:55 | 37.51261 | -6.01649 | 4691 ft | 282 kts | 359° |
| 2026-05-07 09:55 | 37.53166 | -6.01161 | 5466 ft | 283 kts | 26° |
| 2026-05-07 09:55 | 37.54813 | -5.99813 | 6248 ft | 284 kts | 38° |
| 2026-05-07 09:56 | 37.56408 | -5.98339 | 6974 ft | 287 kts | 37° |
| 2026-05-07 09:56 | 37.58018 | -5.96838 | 7695 ft | 289 kts | 38° |
| 2026-05-07 09:56 | 37.59658 | -5.95327 | 8384 ft | 294 kts | 34° |
| 2026-05-07 09:56 | 37.61497 | -5.94157 | 9101 ft | 297 kts | 24° |
| 2026-05-07 09:57 | 37.63399 | -5.93090 | 9806 ft | 302 kts | 23° |
| 2026-05-07 09:57 | 37.65355 | -5.91999 | 10186 ft | 318 kts | 23° |
| 2026-05-07 09:57 | 37.67448 | -5.90833 | 10312 ft | 340 kts | 23° |
| 2026-05-07 09:57 | 37.69674 | -5.89594 | 10502 ft | 357 kts | 23° |
| 2026-05-07 09:58 | 37.71968 | -5.88314 | 11050 ft | 362 kts | 23° |
| 2026-05-07 09:58 | 37.74253 | -5.87037 | 11634 ft | 366 kts | 23° |
| 2026-05-07 09:58 | 37.76592 | -5.85727 | 12270 ft | 369 kts | 23° |
| 2026-05-07 09:58 | 37.78944 | -5.84406 | 12918 ft | 371 kts | 23° |
| 2026-05-07 09:59 | 37.81318 | -5.83072 | 13522 ft | 375 kts | 23° |
| 2026-05-07 09:59 | 37.83714 | -5.81725 | 14074 ft | 379 kts | 23° |
| 2026-05-07 09:59 | 37.86134 | -5.80359 | 14604 ft | 382 kts | 23° |
| 2026-05-07 09:59 | 37.88570 | -5.78983 | 15195 ft | 384 kts | 23° |
| 2026-05-07 10:00 | 37.91023 | -5.77603 | 15707 ft | 388 kts | 23° |
| 2026-05-07 10:00 | 37.93495 | -5.76214 | 16266 ft | 390 kts | 22° |
| 2026-05-07 10:00 | 37.95176 | -5.75267 | 16642 ft | 392 kts | 22° |
| 2026-05-07 10:00 | 37.97680 | -5.73855 | 17182 ft | 395 kts | 22° |
| 2026-05-07 10:01 | 38.00195 | -5.72435 | 17743 ft | 397 kts | 22° |
| 2026-05-07 10:01 | 38.02732 | -5.71002 | 18248 ft | 400 kts | 22° |
| 2026-05-07 10:01 | 38.05250 | -5.69573 | 18665 ft | 404 kts | 22° |
| 2026-05-07 10:01 | 38.07830 | -5.68112 | 19094 ft | 407 kts | 22° |
| 2026-05-07 10:02 | 38.10424 | -5.66646 | 19530 ft | 410 kts | 22° |
| 2026-05-07 10:02 | 38.13036 | -5.65168 | 19994 ft | 412 kts | 22° |
| 2026-05-07 10:02 | 38.15661 | -5.63679 | 20445 ft | 414 kts | 22° |
| 2026-05-07 10:02 | 38.18298 | -5.62183 | 20868 ft | 417 kts | 22° |
| 2026-05-07 10:03 | 38.20954 | -5.60676 | 21303 ft | 419 kts | 22° |
| 2026-05-07 10:03 | 38.23620 | -5.59168 | 21727 ft | 422 kts | 22° |
| 2026-05-07 10:03 | 38.26312 | -5.57643 | 22158 ft | 424 kts | 22° |
| 2026-05-07 10:03 | 38.29013 | -5.56108 | 22590 ft | 427 kts | 22° |
| 2026-05-07 10:04 | 38.31730 | -5.54558 | 23027 ft | 429 kts | 22° |
| 2026-05-07 10:04 | 38.34465 | -5.52993 | 23437 ft | 432 kts | 22° |
| 2026-05-07 10:04 | 38.37209 | -5.51420 | 23799 ft | 434 kts | 22° |
| 2026-05-07 10:04 | 38.39977 | -5.49833 | 24172 ft | 436 kts | 21° |
| 2026-05-07 10:05 | 38.42743 | -5.48250 | 24529 ft | 437 kts | 21° |
| 2026-05-07 10:05 | 38.45524 | -5.46659 | 24893 ft | 439 kts | 21° |
| 2026-05-07 10:05 | 38.48322 | -5.45061 | 25260 ft | 441 kts | 21° |
| 2026-05-07 10:05 | 38.51127 | -5.43458 | 25618 ft | 442 kts | 21° |
| 2026-05-07 10:06 | 38.53932 | -5.41851 | 25965 ft | 444 kts | 21° |
| 2026-05-07 10:06 | 38.56762 | -5.40224 | 26247 ft | 447 kts | 21° |
| 2026-05-07 10:06 | 38.59604 | -5.38588 | 26562 ft | 449 kts | 21° |
| 2026-05-07 10:06 | 38.62458 | -5.36942 | 26892 ft | 451 kts | 21° |
| 2026-05-07 10:07 | 38.65324 | -5.35277 | 27226 ft | 453 kts | 21° |
| 2026-05-07 10:07 | 38.68197 | -5.33603 | 27551 ft | 455 kts | 21° |
| 2026-05-07 10:07 | 38.71085 | -5.31918 | 27775 ft | 459 kts | 22° |
| 2026-05-07 10:07 | 38.74008 | -5.30211 | 27970 ft | 464 kts | 22° |
| 2026-05-07 10:08 | 38.76957 | -5.28485 | 28258 ft | 467 kts | 22° |
| 2026-05-07 10:08 | 38.79919 | -5.26750 | 28546 ft | 469 kts | 22° |
| 2026-05-07 10:08 | 38.82891 | -5.25013 | 28817 ft | 471 kts | 22° |
| 2026-05-07 10:08 | 38.85847 | -5.23289 | 29079 ft | 473 kts | 22° |
| 2026-05-07 10:09 | 38.88846 | -5.21538 | 29338 ft | 475 kts | 22° |
| 2026-05-07 10:09 | 38.91857 | -5.19776 | 29580 ft | 477 kts | 22° |
| 2026-05-07 10:09 | 38.94876 | -5.18004 | 29833 ft | 478 kts | 22° |
| 2026-05-07 10:09 | 38.97900 | -5.16224 | 30127 ft | 477 kts | 22° |
| 2026-05-07 10:10 | 39.00851 | -5.14282 | 30387 ft | 478 kts | 29° |
| 2026-05-07 10:10 | 39.03657 | -5.11978 | 30651 ft | 479 kts | 31° |
| 2026-05-07 10:10 | 39.06458 | -5.09654 | 30901 ft | 479 kts | 31° |
| 2026-05-07 10:10 | 39.09250 | -5.07337 | 31155 ft | 478 kts | 31° |
| 2026-05-07 10:11 | 39.12054 | -5.05016 | 31411 ft | 478 kts | 31° |
| 2026-05-07 10:11 | 39.14852 | -5.02704 | 31676 ft | 478 kts | 31° |
| 2026-05-07 10:11 | 39.17651 | -5.00398 | 31927 ft | 478 kts | 31° |
| 2026-05-07 10:11 | 39.20446 | -4.98094 | 32169 ft | 477 kts | 30° |
| 2026-05-07 10:12 | 39.23242 | -4.95777 | 32416 ft | 477 kts | 30° |
| 2026-05-07 10:12 | 39.26033 | -4.93458 | 32590 ft | 479 kts | 32° |
| 2026-05-07 10:12 | 39.28845 | -4.91120 | 32721 ft | 482 kts | 32° |
| 2026-05-07 10:12 | 39.31668 | -4.88765 | 32873 ft | 484 kts | 32° |
| 2026-05-07 10:13 | 39.34498 | -4.86401 | 33073 ft | 485 kts | 32° |
| 2026-05-07 10:13 | 39.37329 | -4.84032 | 33302 ft | 484 kts | 32° |
| 2026-05-07 10:13 | 39.40155 | -4.81669 | 33551 ft | 484 kts | 31° |
| 2026-05-07 10:13 | 39.42984 | -4.79306 | 33787 ft | 484 kts | 31° |
| 2026-05-07 10:14 | 39.45810 | -4.76940 | 34007 ft | 484 kts | 31° |
| 2026-05-07 10:14 | 39.48635 | -4.74575 | 34222 ft | 483 kts | 32° |
| 2026-05-07 10:14 | 39.51455 | -4.72212 | 34436 ft | 482 kts | 32° |
| 2026-05-07 10:14 | 39.54267 | -4.69847 | 34648 ft | 481 kts | 32° |
| 2026-05-07 10:15 | 39.57073 | -4.67485 | 34850 ft | 481 kts | 32° |
| 2026-05-07 10:15 | 39.59877 | -4.65126 | 35050 ft | 480 kts | 31° |
| 2026-05-07 10:15 | 39.62678 | -4.62766 | 35263 ft | 480 kts | 31° |
| 2026-05-07 10:15 | 39.65474 | -4.60412 | 35453 ft | 479 kts | 31° |
| 2026-05-07 10:16 | 39.68230 | -4.58091 | 35661 ft | 478 kts | 31° |
| 2026-05-07 10:16 | 39.71057 | -4.55707 | 35840 ft | 478 kts | 32° |
| 2026-05-07 10:16 | 39.73851 | -4.53345 | 35920 ft | 481 kts | 32° |
| 2026-05-07 10:17 | 39.79468 | -4.48595 | 35930 ft | 481 kts | 32° |
| 2026-05-07 10:17 | 39.85079 | -4.43841 | 35928 ft | 482 kts | 32° |
| 2026-05-07 10:18 | 39.90647 | -4.39099 | 35928 ft | 482 kts | 32° |
| 2026-05-07 10:18 | 39.96262 | -4.34334 | 35944 ft | 481 kts | 30° |
| 2026-05-07 10:19 | 40.02262 | -4.30498 | 35944 ft | 481 kts | 24° |
| 2026-05-07 10:19 | 40.08335 | -4.26805 | 35953 ft | 482 kts | 24° |
| 2026-05-07 10:20 | 40.14409 | -4.23092 | 35960 ft | 482 kts | 24° |
| 2026-05-07 10:20 | 40.20472 | -4.19377 | 35959 ft | 482 kts | 24° |
| 2026-05-07 10:21 | 40.26549 | -4.15660 | 35965 ft | 482 kts | 24° |
| 2026-05-07 10:21 | 40.32617 | -4.11926 | 35980 ft | 482 kts | 24° |
| 2026-05-07 10:22 | 40.38687 | -4.08182 | 35977 ft | 482 kts | 24° |
| 2026-05-07 10:22 | 40.44751 | -4.04441 | 35987 ft | 482 kts | 24° |
| 2026-05-07 10:23 | 40.50828 | -4.00699 | 35989 ft | 482 kts | 24° |
| 2026-05-07 10:23 | 40.56897 | -3.96942 | 35991 ft | 482 kts | 24° |
| 2026-05-07 10:24 | 40.62970 | -3.93182 | 35997 ft | 482 kts | 24° |
| 2026-05-07 10:24 | 40.69032 | -3.89410 | 35998 ft | 482 kts | 24° |
| 2026-05-07 10:25 | 40.75098 | -3.85626 | 35997 ft | 482 kts | 24° |
| 2026-05-07 10:25 | 40.81120 | -3.81858 | 35990 ft | 483 kts | 25° |
| 2026-05-07 10:26 | 40.87182 | -3.78060 | 35986 ft | 483 kts | 25° |
| 2026-05-07 10:26 | 40.93254 | -3.74262 | 35992 ft | 483 kts | 25° |
| 2026-05-07 10:27 | 40.99327 | -3.70460 | 35988 ft | 483 kts | 25° |
| 2026-05-07 10:27 | 41.05403 | -3.66632 | 35985 ft | 483 kts | 25° |
| 2026-05-07 10:28 | 41.11489 | -3.62839 | 36003 ft | 483 kts | 21° |
| 2026-05-07 10:28 | 41.17973 | -3.60705 | 35993 ft | 479 kts | 3° |
| 2026-05-07 10:28 | 41.21271 | -3.60333 | 36284 ft | 474 kts | 4° |
| 2026-05-07 10:29 | 41.24544 | -3.59930 | 36633 ft | 470 kts | 4° |
| 2026-05-07 10:29 | 41.27820 | -3.59523 | 36416 ft | 474 kts | 4° |
| 2026-05-07 10:29 | 41.31109 | -3.59115 | 36159 ft | 476 kts | 4° |
| 2026-05-07 10:30 | 41.37720 | -3.58308 | 35947 ft | 477 kts | 4° |
| 2026-05-07 10:30 | 41.41030 | -3.57903 | 35944 ft | 478 kts | 4° |
| 2026-05-07 10:30 | 41.47658 | -3.57093 | 35945 ft | 479 kts | 3° |
| 2026-05-07 10:31 | 41.54295 | -3.56288 | 35937 ft | 478 kts | 4° |
| 2026-05-07 10:31 | 41.60922 | -3.55495 | 35945 ft | 478 kts | 4° |
| 2026-05-07 10:32 | 41.67560 | -3.54701 | 35943 ft | 479 kts | 4° |
| 2026-05-07 10:32 | 41.74204 | -3.53906 | 35968 ft | 480 kts | 4° |
| 2026-05-07 10:33 | 41.80861 | -3.53111 | 35957 ft | 480 kts | 4° |
| 2026-05-07 10:33 | 41.87521 | -3.52315 | 35964 ft | 481 kts | 4° |
| 2026-05-07 10:34 | 41.94186 | -3.51517 | 35981 ft | 481 kts | 4° |
| 2026-05-07 10:34 | 42.00860 | -3.50711 | 35974 ft | 481 kts | 4° |
| 2026-05-07 10:35 | 42.07525 | -3.49904 | 35968 ft | 481 kts | 4° |
| 2026-05-07 10:35 | 42.14141 | -3.49101 | 35965 ft | 481 kts | 4° |
| 2026-05-07 10:36 | 42.20804 | -3.48288 | 35968 ft | 480 kts | 4° |
| 2026-05-07 10:36 | 42.27456 | -3.47472 | 35963 ft | 480 kts | 4° |
| 2026-05-07 10:37 | 42.34115 | -3.46656 | 35963 ft | 480 kts | 4° |
| 2026-05-07 10:37 | 42.40768 | -3.45836 | 35968 ft | 480 kts | 4° |
| 2026-05-07 10:38 | 42.47421 | -3.45012 | 35964 ft | 480 kts | 4° |
| 2026-05-07 10:38 | 42.54076 | -3.44188 | 35966 ft | 480 kts | 4° |
| 2026-05-07 10:39 | 42.60731 | -3.43362 | 35965 ft | 481 kts | 4° |
| 2026-05-07 10:39 | 42.67392 | -3.42790 | 35972 ft | 477 kts | 355° |
| 2026-05-07 10:40 | 42.74005 | -3.43241 | 35974 ft | 476 kts | 355° |
| 2026-05-07 10:40 | 42.80632 | -3.43707 | 35992 ft | 476 kts | 355° |
| 2026-05-07 10:41 | 42.87242 | -3.44176 | 35974 ft | 476 kts | 355° |
| 2026-05-07 10:41 | 42.93863 | -3.44639 | 35973 ft | 476 kts | 355° |
| 2026-05-07 10:42 | 43.00477 | -3.45110 | 35973 ft | 476 kts | 355° |
| 2026-05-07 10:42 | 43.07085 | -3.45573 | 35969 ft | 475 kts | 355° |
| 2026-05-07 10:43 | 43.13689 | -3.46042 | 35968 ft | 475 kts | 355° |
| 2026-05-07 10:43 | 43.20296 | -3.46511 | 35972 ft | 475 kts | 355° |
| 2026-05-07 10:44 | 43.26900 | -3.46985 | 35969 ft | 475 kts | 355° |
| 2026-05-07 10:44 | 43.33456 | -3.47454 | 35972 ft | 475 kts | 355° |
| 2026-05-07 10:45 | 43.40055 | -3.47925 | 35972 ft | 475 kts | 355° |
| 2026-05-07 10:45 | 43.46653 | -3.48393 | 35970 ft | 475 kts | 355° |
| 2026-05-07 10:46 | 43.53251 | -3.48870 | 35969 ft | 475 kts | 355° |
| 2026-05-07 10:46 | 43.59849 | -3.49348 | 35987 ft | 475 kts | 355° |
| 2026-05-07 10:47 | 43.66447 | -3.49821 | 35980 ft | 475 kts | 355° |
| 2026-05-07 10:47 | 43.73041 | -3.50292 | 35980 ft | 474 kts | 355° |
| 2026-05-07 10:48 | 43.79633 | -3.50766 | 35989 ft | 475 kts | 355° |
| 2026-05-07 10:48 | 43.86227 | -3.51247 | 35988 ft | 474 kts | 354° |
| 2026-05-07 10:49 | 43.91706 | -3.51647 | 35987 ft | 474 kts | 355° |
| 2026-05-07 10:49 | 43.98292 | -3.52126 | 35997 ft | 474 kts | 354° |
| 2026-05-07 10:50 | 44.04878 | -3.52606 | 35997 ft | 474 kts | 355° |
| 2026-05-07 10:50 | 44.11457 | -3.53089 | 35999 ft | 473 kts | 355° |
| 2026-05-07 10:51 | 44.18031 | -3.53566 | 36007 ft | 473 kts | 355° |
| 2026-05-07 10:51 | 44.24597 | -3.54047 | 36005 ft | 472 kts | 354° |
| 2026-05-07 10:52 | 44.31156 | -3.54539 | 36006 ft | 472 kts | 355° |
| 2026-05-07 10:52 | 44.37713 | -3.55021 | 36016 ft | 471 kts | 355° |
| 2026-05-07 10:53 | 44.44263 | -3.55508 | 36014 ft | 471 kts | 355° |
| 2026-05-07 10:53 | 44.50766 | -3.55996 | 36013 ft | 471 kts | 355° |
| 2026-05-07 10:54 | 44.57310 | -3.56480 | 36023 ft | 471 kts | 355° |
| 2026-05-07 10:54 | 44.63851 | -3.56954 | 36025 ft | 470 kts | 355° |
| 2026-05-07 10:55 | 44.70391 | -3.57443 | 36020 ft | 470 kts | 355° |
| 2026-05-07 10:55 | 44.76920 | -3.57941 | 36022 ft | 470 kts | 355° |
| 2026-05-07 10:56 | 44.83439 | -3.58424 | 36018 ft | 469 kts | 355° |
| 2026-05-07 10:56 | 44.89964 | -3.58912 | 36017 ft | 470 kts | 355° |
| 2026-05-07 10:57 | 44.96433 | -3.59404 | 36023 ft | 469 kts | 355° |
| 2026-05-07 10:57 | 45.02955 | -3.59907 | 36027 ft | 469 kts | 355° |
| 2026-05-07 10:58 | 45.09473 | -3.60402 | 36025 ft | 469 kts | 355° |
| 2026-05-07 10:58 | 45.15984 | -3.60886 | 36031 ft | 468 kts | 355° |
| 2026-05-07 10:59 | 45.22494 | -3.61374 | 36032 ft | 468 kts | 355° |
| 2026-05-07 10:59 | 45.28999 | -3.61876 | 36032 ft | 468 kts | 355° |
| 2026-05-07 11:00 | 45.35506 | -3.62378 | 36042 ft | 468 kts | 355° |
| 2026-05-07 11:00 | 45.41965 | -3.62865 | 36042 ft | 468 kts | 355° |
| 2026-05-07 11:01 | 45.48462 | -3.63362 | 36043 ft | 467 kts | 355° |
| 2026-05-07 11:01 | 45.54955 | -3.63878 | 36044 ft | 467 kts | 355° |
| 2026-05-07 11:02 | 45.61439 | -3.64384 | 36041 ft | 467 kts | 355° |
| 2026-05-07 11:02 | 45.67921 | -3.64874 | 36040 ft | 466 kts | 355° |
| 2026-05-07 11:03 | 45.74404 | -3.65365 | 36050 ft | 466 kts | 355° |
| 2026-05-07 11:03 | 45.80885 | -3.65867 | 36043 ft | 466 kts | 355° |
| 2026-05-07 11:04 | 45.87362 | -3.66376 | 36050 ft | 466 kts | 355° |
| 2026-05-07 11:04 | 45.93837 | -3.66893 | 36054 ft | 466 kts | 355° |
| 2026-05-07 11:05 | 46.00309 | -3.67400 | 36052 ft | 466 kts | 355° |
| 2026-05-07 11:05 | 46.06782 | -3.67893 | 36054 ft | 466 kts | 355° |
| 2026-05-07 11:06 | 46.13251 | -3.68390 | 36053 ft | 466 kts | 355° |
| 2026-05-07 11:06 | 46.19723 | -3.68895 | 36053 ft | 466 kts | 355° |
| 2026-05-07 11:07 | 46.26190 | -3.69411 | 36051 ft | 465 kts | 355° |
| 2026-05-07 11:07 | 46.32660 | -3.69917 | 36065 ft | 466 kts | 356° |
| 2026-05-07 11:08 | 46.39104 | -3.69886 | 36060 ft | 467 kts | 1° |
| 2026-05-07 11:08 | 46.45596 | -3.69408 | 36058 ft | 467 kts | 1° |
| 2026-05-07 11:09 | 46.52086 | -3.68945 | 36066 ft | 467 kts | 1° |
| 2026-05-07 11:09 | 46.58574 | -3.68623 | 36061 ft | 467 kts | 0° |
| 2026-05-07 11:10 | 46.65070 | -3.68352 | 36061 ft | 467 kts | 0° |
| 2026-05-07 11:10 | 46.71564 | -3.68078 | 36062 ft | 467 kts | 0° |
| 2026-05-07 11:11 | 46.78054 | -3.67785 | 36064 ft | 467 kts | 0° |
| 2026-05-07 11:11 | 46.84551 | -3.67467 | 36062 ft | 467 kts | 0° |
| 2026-05-07 11:12 | 46.91043 | -3.67146 | 36060 ft | 466 kts | 0° |
| 2026-05-07 11:12 | 46.97438 | -3.65777 | 36058 ft | 468 kts | 20° |
| 2026-05-07 11:13 | 47.03489 | -3.62254 | 36058 ft | 468 kts | 21° |
| 2026-05-07 11:13 | 47.09539 | -3.58664 | 36059 ft | 469 kts | 21° |
| 2026-05-07 11:14 | 47.15548 | -3.55104 | 36064 ft | 469 kts | 21° |
| 2026-05-07 11:14 | 47.21599 | -3.51522 | 36060 ft | 469 kts | 21° |
| 2026-05-07 11:15 | 47.27648 | -3.47933 | 36055 ft | 469 kts | 21° |
| 2026-05-07 11:15 | 47.33693 | -3.44338 | 36059 ft | 469 kts | 21° |
| 2026-05-07 11:16 | 47.39730 | -3.40733 | 36059 ft | 468 kts | 21° |
| 2026-05-07 11:16 | 47.45771 | -3.37125 | 36056 ft | 468 kts | 21° |
| 2026-05-07 11:17 | 47.51804 | -3.33504 | 36044 ft | 468 kts | 21° |
| 2026-05-07 11:17 | 47.57830 | -3.29877 | 36052 ft | 467 kts | 21° |
| 2026-05-07 11:18 | 47.63852 | -3.26253 | 36053 ft | 467 kts | 21° |
| 2026-05-07 11:18 | 47.69865 | -3.22624 | 36053 ft | 467 kts | 21° |
| 2026-05-07 11:19 | 47.75877 | -3.18984 | 36059 ft | 466 kts | 21° |
| 2026-05-07 11:19 | 47.81880 | -3.15342 | 36044 ft | 466 kts | 21° |
| 2026-05-07 11:20 | 47.87875 | -3.11694 | 36037 ft | 466 kts | 21° |
| 2026-05-07 11:20 | 47.93827 | -3.08061 | 36024 ft | 465 kts | 21° |
| 2026-05-07 11:21 | 47.99816 | -3.04402 | 36027 ft | 465 kts | 21° |
| 2026-05-07 11:21 | 48.05804 | -3.00728 | 36031 ft | 465 kts | 22° |
| 2026-05-07 11:22 | 48.11790 | -2.97048 | 36016 ft | 465 kts | 21° |
| 2026-05-07 11:22 | 48.17782 | -2.93365 | 36031 ft | 466 kts | 21° |
| 2026-05-07 11:23 | 48.23777 | -2.89684 | 36045 ft | 465 kts | 21° |
| 2026-05-07 11:23 | 48.29778 | -2.86018 | 36046 ft | 466 kts | 21° |
| 2026-05-07 11:24 | 48.35778 | -2.82339 | 36046 ft | 466 kts | 21° |
| 2026-05-07 11:24 | 48.41773 | -2.78644 | 36043 ft | 465 kts | 21° |
| 2026-05-07 11:25 | 48.47767 | -2.74937 | 36057 ft | 465 kts | 21° |
| 2026-05-07 11:25 | 48.53743 | -2.71234 | 36060 ft | 464 kts | 21° |
| 2026-05-07 11:26 | 48.59680 | -2.67533 | 36054 ft | 465 kts | 21° |
| 2026-05-07 11:26 | 48.65660 | -2.63844 | 36062 ft | 464 kts | 20° |
| 2026-05-07 11:27 | 48.71691 | -2.60364 | 36057 ft | 464 kts | 19° |
| 2026-05-07 11:27 | 48.77638 | -2.56618 | 36061 ft | 464 kts | 29° |
| 2026-05-07 11:28 | 48.82876 | -2.50923 | 36057 ft | 464 kts | 37° |
| 2026-05-07 11:28 | 48.87983 | -2.44919 | 36067 ft | 464 kts | 37° |
| 2026-05-07 11:29 | 48.93095 | -2.38913 | 36068 ft | 464 kts | 37° |
| 2026-05-07 11:29 | 48.98212 | -2.32905 | 36067 ft | 464 kts | 37° |
| 2026-05-07 11:30 | 49.03321 | -2.26885 | 36074 ft | 464 kts | 37° |
| 2026-05-07 11:30 | 49.08433 | -2.20859 | 36085 ft | 465 kts | 37° |
| 2026-05-07 11:31 | 49.13536 | -2.14806 | 36076 ft | 465 kts | 37° |
| 2026-05-07 11:31 | 49.18637 | -2.08734 | 36077 ft | 465 kts | 37° |
| 2026-05-07 11:32 | 49.26711 | -2.00732 | 36086 ft | 464 kts | 28° |
| 2026-05-07 11:33 | 49.32358 | -1.95952 | 36086 ft | 464 kts | 28° |
| 2026-05-07 11:33 | 49.37995 | -1.91148 | 36077 ft | 463 kts | 28° |
| 2026-05-07 11:34 | 49.43626 | -1.86346 | 36083 ft | 463 kts | 28° |
| 2026-05-07 11:34 | 49.49261 | -1.81525 | 36078 ft | 463 kts | 28° |
| 2026-05-07 11:35 | 49.54886 | -1.76697 | 36083 ft | 463 kts | 28° |
| 2026-05-07 11:35 | 49.60579 | -1.72089 | 36081 ft | 462 kts | 20° |
| 2026-05-07 11:36 | 49.66615 | -1.68763 | 36088 ft | 461 kts | 18° |
| 2026-05-07 11:36 | 49.72655 | -1.65426 | 36047 ft | 461 kts | 18° |
| 2026-05-07 11:36 | 49.75685 | -1.63743 | 35097 ft | 468 kts | 18° |
| 2026-05-07 11:37 | 49.78779 | -1.62024 | 34132 ft | 474 kts | 18° |
| 2026-05-07 11:37 | 49.81890 | -1.60296 | 33200 ft | 475 kts | 18° |
| 2026-05-07 11:37 | 49.84999 | -1.58569 | 32328 ft | 474 kts | 18° |
| 2026-05-07 11:37 | 49.88107 | -1.56841 | 31391 ft | 476 kts | 18° |
| 2026-05-07 11:38 | 49.91160 | -1.55137 | 30912 ft | 467 kts | 18° |
| 2026-05-07 11:38 | 49.94238 | -1.53416 | 30313 ft | 462 kts | 18° |
| 2026-05-07 11:38 | 49.97212 | -1.51747 | 29707 ft | 457 kts | 18° |
| 2026-05-07 11:38 | 50.00181 | -1.50079 | 29147 ft | 451 kts | 18° |
| 2026-05-07 11:39 | 50.03124 | -1.48508 | 28599 ft | 444 kts | 16° |
| 2026-05-07 11:39 | 50.06039 | -1.47064 | 28058 ft | 437 kts | 15° |
| 2026-05-07 11:39 | 50.08929 | -1.45700 | 27525 ft | 431 kts | 15° |
| 2026-05-07 11:39 | 50.11786 | -1.44372 | 26996 ft | 425 kts | 15° |
| 2026-05-07 11:40 | 50.14597 | -1.43054 | 26476 ft | 420 kts | 15° |
| 2026-05-07 11:40 | 50.17373 | -1.41729 | 25972 ft | 415 kts | 15° |
| 2026-05-07 11:40 | 50.20112 | -1.40397 | 25474 ft | 410 kts | 15° |
| 2026-05-07 11:40 | 50.22819 | -1.39062 | 24984 ft | 406 kts | 16° |
| 2026-05-07 11:41 | 50.25497 | -1.37729 | 24492 ft | 402 kts | 16° |
| 2026-05-07 11:41 | 50.28150 | -1.36412 | 24037 ft | 398 kts | 16° |
| 2026-05-07 11:41 | 50.30776 | -1.35112 | 23546 ft | 394 kts | 16° |
| 2026-05-07 11:41 | 50.33374 | -1.33830 | 23072 ft | 388 kts | 16° |
| 2026-05-07 11:42 | 50.35929 | -1.32567 | 22652 ft | 382 kts | 16° |
| 2026-05-07 11:42 | 50.38445 | -1.31319 | 22220 ft | 376 kts | 16° |
| 2026-05-07 11:42 | 50.40919 | -1.30082 | 21824 ft | 372 kts | 16° |
| 2026-05-07 11:42 | 50.42549 | -1.29268 | 21542 ft | 371 kts | 16° |
| 2026-05-07 11:43 | 50.45001 | -1.28053 | 21109 ft | 369 kts | 16° |
| 2026-05-07 11:43 | 50.47444 | -1.26845 | 20694 ft | 366 kts | 17° |
| 2026-05-07 11:43 | 50.49794 | -1.25338 | 20260 ft | 365 kts | 26° |
| 2026-05-07 11:43 | 50.51942 | -1.23234 | 19826 ft | 363 kts | 37° |
| 2026-05-07 11:44 | 50.53889 | -1.20717 | 19383 ft | 361 kts | 39° |
| 2026-05-07 11:44 | 50.55808 | -1.18189 | 18978 ft | 359 kts | 39° |
| 2026-05-07 11:44 | 50.57721 | -1.15678 | 18520 ft | 357 kts | 39° |
| 2026-05-07 11:44 | 50.59619 | -1.13184 | 18022 ft | 355 kts | 39° |
| 2026-05-07 11:45 | 50.61502 | -1.10703 | 17560 ft | 352 kts | 40° |
| 2026-05-07 11:45 | 50.63439 | -1.08346 | 16780 ft | 356 kts | 33° |
| 2026-05-07 11:45 | 50.65541 | -1.06182 | 15793 ft | 366 kts | 33° |
| 2026-05-07 11:45 | 50.67697 | -1.03945 | 14811 ft | 375 kts | 34° |
| 2026-05-07 11:46 | 50.69873 | -1.01665 | 13846 ft | 372 kts | 34° |
| 2026-05-07 11:46 | 50.72003 | -0.99423 | 12515 ft | 365 kts | 34° |
| 2026-05-07 11:46 | 50.74089 | -0.97220 | 11351 ft | 356 kts | 34° |
| 2026-05-07 11:46 | 50.76066 | -0.95133 | 10862 ft | 333 kts | 35° |
| 2026-05-07 11:47 | 50.77947 | -0.93153 | 10737 ft | 318 kts | 34° |
| 2026-05-07 11:47 | 50.79722 | -0.91284 | 10388 ft | 298 kts | 34° |
| 2026-05-07 11:47 | 50.81425 | -0.89484 | 9787 ft | 295 kts | 34° |
| 2026-05-07 11:47 | 50.83111 | -0.87696 | 9640 ft | 290 kts | 34° |
| 2026-05-07 11:48 | 50.84788 | -0.85914 | 9509 ft | 291 kts | 35° |
| 2026-05-07 11:48 | 50.86476 | -0.84121 | 9195 ft | 291 kts | 34° |
| 2026-05-07 11:48 | 50.88124 | -0.82375 | 8830 ft | 287 kts | 34° |
| 2026-05-07 11:48 | 50.89795 | -0.80606 | 8464 ft | 283 kts | 34° |
| 2026-05-07 11:49 | 50.91402 | -0.78900 | 8109 ft | 279 kts | 33° |
| 2026-05-07 11:49 | 50.93005 | -0.77205 | 7772 ft | 276 kts | 33° |
| 2026-05-07 11:49 | 50.94593 | -0.75518 | 7441 ft | 273 kts | 34° |
| 2026-05-07 11:49 | 50.96158 | -0.73846 | 7111 ft | 271 kts | 33° |
| 2026-05-07 11:50 | 50.97715 | -0.72183 | 6743 ft | 269 kts | 33° |
| 2026-05-07 11:50 | 50.99256 | -0.70538 | 6363 ft | 264 kts | 33° |
| 2026-05-07 11:50 | 51.00756 | -0.68938 | 5967 ft | 257 kts | 33° |
| 2026-05-07 11:50 | 51.02220 | -0.67376 | 5560 ft | 250 kts | 33° |
| 2026-05-07 11:51 | 51.03638 | -0.65857 | 5341 ft | 240 kts | 33° |
| 2026-05-07 11:51 | 51.04999 | -0.64397 | 5101 ft | 231 kts | 33° |
| 2026-05-07 11:51 | 51.06297 | -0.63003 | 4897 ft | 221 kts | 33° |
| 2026-05-07 11:51 | 51.07553 | -0.61661 | 4701 ft | 213 kts | 33° |
| 2026-05-07 11:52 | 51.08640 | -0.60091 | 4486 ft | 211 kts | 52° |
| 2026-05-07 11:52 | 51.09331 | -0.58049 | 4286 ft | 210 kts | 72° |
| 2026-05-07 11:52 | 51.09667 | -0.55785 | 4095 ft | 210 kts | 77° |
| 2026-05-07 11:52 | 51.09990 | -0.53518 | 4008 ft | 210 kts | 77° |
| 2026-05-07 11:53 | 51.10306 | -0.51285 | 4001 ft | 199 kts | 77° |
| 2026-05-07 11:53 | 51.10599 | -0.49214 | 3837 ft | 187 kts | 77° |
| 2026-05-07 11:53 | 51.10876 | -0.47248 | 3612 ft | 181 kts | 77° |
| 2026-05-07 11:53 | 51.11147 | -0.45326 | 3380 ft | 176 kts | 77° |
| 2026-05-07 11:54 | 51.11411 | -0.43448 | 3146 ft | 172 kts | 77° |
| 2026-05-07 11:54 | 51.11668 | -0.41618 | 2913 ft | 168 kts | 77° |
| 2026-05-07 11:54 | 51.11918 | -0.39836 | 2696 ft | 161 kts | 77° |
| 2026-05-07 11:54 | 51.12158 | -0.38125 | 2472 ft | 156 kts | 78° |
| 2026-05-07 11:55 | 51.12392 | -0.36449 | 2261 ft | 154 kts | 78° |
| 2026-05-07 11:55 | 51.12624 | -0.34787 | 2051 ft | 153 kts | 77° |
| 2026-05-07 11:55 | 51.12851 | -0.33161 | 1841 ft | 147 kts | 78° |
| 2026-05-07 11:55 | 51.13070 | -0.31590 | 1646 ft | 144 kts | 78° |
| 2026-05-07 11:56 | 51.13288 | -0.30036 | 1455 ft | 143 kts | 78° |
| 2026-05-07 11:56 | 51.13504 | -0.28490 | 1248 ft | 143 kts | 79° |
| 2026-05-07 11:56 | 51.13720 | -0.26955 | 1052 ft | 142 kts | 79° |
| 2026-05-07 11:56 | 51.13929 | -0.25430 | 869 ft | 140 kts | 80° |
| 2026-05-07 11:57 | 51.14137 | -0.23930 | 670 ft | 138 kts | 80° |
| 2026-05-07 11:57 | 51.14347 | -0.22443 | 464 ft | 137 kts | 80° |
| 2026-05-07 11:57 | 51.14546 | -0.20965 | 290 ft | 136 kts | 80° |
| 2026-05-07 11:57 | 51.14742 | -0.19562 | 216 ft | 117 kts | 78° |
| 2026-05-07 11:58 | 51.14880 | -0.18550 | 204 ft | 72 kts | 78° |
| 2026-05-07 11:58 | 51.14960 | -0.18025 | 213 ft | 37 kts | 68° |
| 2026-05-07 11:58 | 51.15056 | -0.17796 | 218 ft | 13 kts | 51° |
| 2026-05-07 11:58 | 51.15126 | -0.17759 | 205 ft | 12 kts | 354° |
| 2026-05-07 11:59 | 51.15213 | -0.17776 | 209 ft | 13 kts | 352° |
| 2026-05-07 11:59 | 51.15263 | -0.17716 | 207 ft | 11 kts | 73° |
| 2026-05-07 11:59 | 51.15282 | -0.17587 | 204 ft | 13 kts | 77° |
| 2026-05-07 11:59 | 51.15300 | -0.17436 | 208 ft | 12 kts | 81° |
| 2026-05-07 12:00 | 51.15346 | -0.17356 | 213 ft | 11 kts | 39° |
| 2026-05-07 12:00 | 51.15380 | -0.17236 | 214 ft | 13 kts | 76° |
| 2026-05-07 12:00 | 51.15408 | -0.17111 | 208 ft | 11 kts | 73° |
| 2026-05-07 12:00 | 51.15427 | -0.16980 | 204 ft | 13 kts | 78° |
| 2026-05-07 12:01 | 51.15445 | -0.16850 | 204 ft | 8 kts | 77° |
| 2026-05-07 12:01 | 51.15449 | -0.16760 | 210 ft | 9 kts | 104° |
| 2026-05-07 12:01 | 51.15449 | -0.16661 | 212 ft | 6 kts | 80° |
| 2026-05-07 12:01 | 51.15483 | -0.16642 | 204 ft | 7 kts | 351° |
| 2026-05-07 12:02 | 51.15505 | -0.16649 | 215 ft | 2 kts | 348° |
| 2026-05-07 12:02 | 51.15514 | -0.16653 | 214 ft | 1 kts | 347° |
| 2026-05-07 12:02 | 51.15521 | -0.16655 | 211 ft | 2 kts | 348° |
| 2026-05-07 12:02 | 51.15524 | -0.16656 | 211 ft | 0 kts | 347° |